TAF EGNT
EGNT 270457Z 2706/2806 35025G45KT 9999 SCT025 TEMPO 2706/2715 4000 SHRASN BKN006 BECMG 2712/2715 35017G35KT PROB40 TEMPO 2715/2724 4000 SHRASN BKN009 BECMG 2718/2721 32015G25KT BECMG 2800/2803 32010KT=
METAR EGNT
WC EGNT
WS EGNT
WV EGNT